Andrews Air Force Base
KADW : now visible

Airfield :











YOU CAN JOIN US ON...

 
LOGIN :

Register | Disclaimer

   EN    FR    IT 

 









Legend :    VFR   Marginal VFR   IFR   Intensive IFR   Very Intensive IFR
Visi :
Ceiling :
>= 8 km
>= 3000ft
5 to 8 km
1000 to 3000 ft
1500m to 5 km
500 to 1000 ft
800 to 1500m
200 to 500 ft
< 800m
< 200 ft
Symbols :   Thunderstorms  Fog  Heavy snow  Heavy precipitations  Wind > 20 kt






- Airport Elevation : 280 ft


KADW - Andrews Air Force Base

CURRENT METAR :
  • 161156Z AUTO 07004KT 7SM -RA OVC020 01/00 A3023 RMK AO2 UPB1056E1059RAB1059 OVC V BKN CIG 011 RWY19L SLP246 P0004 60007 70007 T00051005 10031 20005 52012 $

EXPIRED METARs :
  • 161113Z AUTO 07003KT 10SM -RA SCT018 BKN030 OVC050 01/M01 A3022 RMK AO2 UPB1056E1059RAB1059 SLP242 $
  • 161056Z AUTO 03005KT 5SM -UP BR BKN014 01/M01 A3022 RMK AO2 RAE0956DZB0956E0958DZB04E12RAB12E15UPB15E16SNB16E30RAB30E35SNB35E53UPB53 SLP242 P0003 T00081013 $
  • 161034Z AUTO 04005KT 9SM -RA FEW007 SCT025 01/M02 A3022 RMK AO2 RAE0956DZB0956E0958DZB04E12RAB12E15UPB15E16SNB16E30RAB30 SLP242 $
  • 161019Z AUTO 04004KT 10SM -SN BKN025 BKN070 02/M02 A3021 RMK AO2 RAE0956DZB0956E0958DZB04E12RAB12E15UPB15E16SNB16 CIG 024 RWY19L PRESFR SLP239 $
  • 160958Z AUTO 00000KT 10SM SCT024 BKN060 OVC070 02/M02 A3022 RMK AO2 RAE56DZB56E58 SLP242 $
  • 160956Z AUTO 06003KT 10SM -RA BKN024 BKN060 OVC075 02/M03 A3021 RMK AO2 RAB28E39DZB39E41RAB46 SLP239 P0000 T00201027 $
  • 160941Z AUTO 08005KT 10SM BKN024 BKN060 OVC075 02/M03 A3021 RMK AO2 RAB28E39DZB39E41 BKN024 V OVC SLP239 $
  • 160928Z AUTO 00000KT 10SM -RA OVC024 02/M03 A3020 RMK AO2 RAB28 SLP235 $

TAF TAF KADW
Valid from the 16 at 09:00 until the 17 at 15:00 UTC


160900Z 1609/1715 04006KT 9999 -RA BKN020 OVC080 QNH3018INS
BECMG 1610/1611 04006KT 9000 -RASN BKN015 OVC080 620159 QNH3020INS
BECMG 1611/1612 10006KT 8000 -SNPL BKN010 OVC050 620024 620805 QNH3020INS
TEMPO 1612/1613 BKN006
BECMG 1612/1613 09006KT 8000 -RAPL BR SCT005 BKN015 OVC040 620155 QNH3020INS
BECMG 1613/1614 09006KT 8000 -RA BR SCT015 BKN030 OVC040 QNH3020INS
BECMG 1614/1615 09006KT 9999 NSW SCT020 BKN030 OVC040 QNH3020INS
BECMG 1617/1618 11006KT 9000 -RA BKN020 OVC030 QNH3010INS
BECMG 1621/1622 09006KT 4800 -RA BR OVC002 QNH3015INS
BECMG 1703/1704 09006KT 1600 RA BR OVC001 QNH3004INS TX07/1709Z TN01/1610Z



MET'MAP, your aeronautical weather chart ! - Copyright ORBIFLY December 2007 - Disclaimer

ORBIFLY MET'MAP TEAM :

Programming & Development : Alexandra Zaïnal
Concept & original design : Baudouin d'Aumeries
Assistance for programming : Marc-Olivier Méhu
Technical & hardware support : Manuel Goepfert

Contact : metmap@orbifly.com




SOURCES & CREDITS :

   NOAA       Earth
Advisory